createdAt,value
2018-06-03T00:00:21.227Z,18.35
2018-06-03T00:01:21.250Z,18.34
2018-06-03T00:02:21.273Z,18.42
2018-06-03T00:03:21.292Z,18.36
2018-06-03T00:04:21.314Z,18.36
2018-06-03T00:05:21.337Z,18.44
2018-06-03T00:06:21.358Z,18.38
2018-06-03T00:07:21.380Z,18.39
2018-06-03T00:08:21.402Z,18.39
2018-06-03T00:09:21.424Z,18.38
2018-06-03T00:10:21.445Z,18.39
2018-06-03T00:11:21.469Z,18.32
2018-06-03T00:12:21.488Z,18.39
2018-06-03T00:13:21.511Z,18.42
2018-06-03T00:14:21.532Z,18.36
2018-06-03T00:15:21.554Z,18.42
2018-06-03T00:16:21.576Z,18.29
2018-06-03T00:17:21.598Z,18.36
2018-06-03T00:18:21.629Z,18.34
2018-06-03T00:19:21.640Z,18.27
2018-06-03T00:20:21.663Z,18.35
2018-06-03T00:21:21.685Z,18.35
2018-06-03T00:22:21.706Z,18.36
2018-06-03T00:23:21.727Z,18.35
2018-06-03T00:24:21.749Z,18.31
2018-06-03T00:25:21.772Z,18.21
2018-06-03T00:26:21.794Z,18.27
2018-06-03T00:27:21.815Z,18.27
2018-06-03T00:28:21.835Z,18.34
2018-06-03T00:29:21.860Z,18.27
2018-06-03T00:30:21.879Z,18.26
2018-06-03T00:31:21.907Z,18.31
2018-06-03T00:32:21.923Z,18.31
2018-06-03T00:33:21.950Z,18.31
2018-06-03T00:34:21.966Z,18.27
2018-06-03T00:35:21.989Z,18.26
2018-06-03T00:36:22.011Z,18.24
2018-06-03T00:37:22.032Z,18.21
2018-06-03T00:38:22.054Z,18.21
2018-06-03T00:39:22.078Z,18.17
2018-06-03T00:40:22.127Z,18.14
2018-06-03T00:41:22.122Z,18.11
2018-06-03T00:42:22.139Z,18.05
2018-06-03T00:43:22.162Z,18.06
2018-06-03T00:44:22.183Z,18.05
2018-06-03T00:45:22.205Z,18.03
2018-06-03T00:46:22.225Z,18.13
2018-06-03T00:47:22.249Z,18.08
2018-06-03T00:48:22.269Z,18.06
2018-06-03T00:49:22.299Z,18.08
2018-06-03T00:50:22.313Z,18.08
2018-06-03T00:51:22.335Z,18.06
2018-06-03T00:52:22.357Z,18.05
2018-06-03T00:53:22.379Z,18.03
2018-06-03T00:54:22.398Z,18.08
2018-06-03T00:55:22.421Z,18.03
2018-06-03T00:56:22.444Z,18.06
2018-06-03T00:57:22.465Z,18.08
2018-06-03T00:58:22.485Z,18.17
2018-06-03T00:59:22.509Z,18.13
2018-06-03T01:00:22.529Z,18.14
2018-06-03T01:01:22.550Z,18.17
2018-06-03T01:02:22.573Z,18.17
2018-06-03T01:03:22.594Z,18.13
2018-06-03T01:04:22.616Z,18.13
2018-06-03T01:05:22.636Z,18.17
2018-06-03T01:06:22.659Z,18.17
2018-06-03T01:07:22.691Z,18.19
2018-06-03T01:08:22.702Z,18.20
2018-06-03T01:09:22.729Z,18.16
2018-06-03T01:10:22.749Z,18.19
2018-06-03T01:11:22.766Z,18.20
2018-06-03T01:12:22.790Z,18.19
2018-06-03T01:13:22.811Z,18.23
2018-06-03T01:14:22.829Z,18.29
2018-06-03T01:15:22.851Z,18.27
2018-06-03T01:16:22.874Z,18.34
2018-06-03T01:17:22.896Z,18.27
2018-06-03T01:18:22.917Z,18.32
2018-06-03T01:19:22.938Z,18.31
2018-06-03T01:20:22.960Z,18.36
2018-06-03T01:21:22.982Z,18.32
2018-06-03T01:22:23.003Z,18.35
2018-06-03T01:23:23.026Z,18.39
2018-06-03T01:24:23.048Z,18.38
2018-06-03T01:25:23.068Z,18.42
2018-06-03T01:26:23.092Z,18.36
2018-06-03T01:27:23.114Z,18.45
2018-06-03T01:28:23.134Z,18.51
2018-06-03T01:29:23.158Z,18.39
2018-06-03T01:30:23.176Z,18.44
2018-06-03T01:31:23.198Z,18.54
2018-06-03T01:32:23.220Z,18.51
2018-06-03T01:33:23.243Z,18.51
2018-06-03T01:34:23.263Z,18.53
2018-06-03T01:35:23.285Z,18.50
2018-06-03T01:36:23.308Z,18.49
2018-06-03T01:37:23.329Z,18.53
2018-06-03T01:38:23.349Z,18.42
2018-06-03T01:39:23.372Z,18.42
2018-06-03T01:40:23.393Z,18.53
2018-06-03T01:41:23.415Z,18.54
2018-06-03T01:42:23.437Z,18.50
2018-06-03T01:43:23.460Z,18.51
2018-06-03T01:44:23.480Z,18.53
2018-06-03T01:45:23.502Z,18.35
2018-06-03T01:46:23.524Z,18.41
2018-06-03T01:47:23.546Z,18.45
2018-06-03T01:48:23.569Z,18.42
2018-06-03T01:49:23.590Z,18.39
2018-06-03T01:50:23.610Z,18.45
2018-06-03T01:51:23.634Z,18.44
2018-06-03T01:52:23.656Z,18.41
2018-06-03T01:53:23.678Z,18.47
2018-06-03T01:54:23.698Z,18.47
2018-06-03T01:55:23.722Z,18.49
2018-06-03T01:56:23.742Z,18.47
2018-06-03T01:57:23.763Z,18.45
2018-06-03T01:58:23.988Z,18.42
2018-06-03T01:59:23.807Z,18.50
2018-06-03T02:00:23.829Z,18.49
2018-06-03T02:01:23.851Z,18.51
2018-06-03T02:02:23.872Z,18.47
2018-06-03T02:03:23.899Z,18.54
2018-06-03T02:04:23.916Z,18.56
2018-06-03T02:05:23.939Z,18.50
2018-06-03T02:06:23.959Z,18.50
2018-06-03T02:07:23.982Z,18.42
2018-06-03T02:08:24.003Z,18.45
2018-06-03T02:09:24.026Z,18.38
2018-06-03T02:10:24.045Z,18.42
2018-06-03T02:11:24.069Z,18.42
2018-06-03T02:12:24.091Z,18.41
2018-06-03T02:13:24.113Z,18.38
2018-06-03T02:14:24.135Z,18.42
2018-06-03T02:15:24.156Z,18.38
2018-06-03T02:16:24.181Z,18.38
2018-06-03T02:17:24.200Z,18.38
2018-06-03T02:18:24.225Z,18.38
2018-06-03T02:19:24.244Z,18.34
2018-06-03T02:20:24.266Z,18.27
2018-06-03T02:21:24.287Z,18.38
2018-06-03T02:22:24.307Z,18.42
2018-06-03T02:23:24.330Z,18.35
2018-06-03T02:24:24.353Z,18.42
2018-06-03T02:25:24.373Z,18.49
2018-06-03T02:26:24.395Z,18.38
2018-06-03T02:27:24.418Z,18.42
2018-06-03T02:28:24.439Z,18.45
2018-06-03T02:29:24.461Z,18.41
2018-06-03T02:30:24.482Z,18.41
2018-06-03T02:31:24.504Z,18.41
2018-06-03T02:32:24.526Z,18.45
2018-06-03T02:33:24.549Z,18.38
2018-06-03T02:34:24.569Z,18.45
2018-06-03T02:35:24.592Z,18.41
2018-06-03T02:36:24.614Z,18.42
2018-06-03T02:37:24.635Z,18.44
2018-06-03T02:38:24.656Z,18.38
2018-06-03T02:39:24.680Z,18.41
2018-06-03T02:40:24.702Z,18.45
2018-06-03T02:41:24.722Z,18.36
2018-06-03T02:42:24.743Z,18.32
2018-06-03T02:43:24.766Z,18.34
2018-06-03T02:44:24.792Z,18.38
2018-06-03T02:45:24.810Z,18.32
2018-06-03T02:46:24.831Z,18.38
2018-06-03T02:47:24.855Z,18.31
2018-06-03T02:48:24.874Z,18.38
2018-06-03T02:49:24.897Z,18.35
2018-06-03T02:50:24.917Z,18.32
2018-06-03T02:51:24.938Z,18.35
2018-06-03T02:52:24.961Z,18.36
2018-06-03T02:53:24.989Z,18.38
2018-06-03T02:54:25.009Z,18.32
2018-06-03T02:55:25.025Z,18.45
2018-06-03T02:56:25.048Z,18.42
2018-06-03T02:57:25.076Z,18.38
2018-06-03T02:58:25.091Z,18.38
2018-06-03T02:59:25.333Z,18.36
2018-06-03T03:00:25.134Z,18.39
2018-06-03T03:01:25.156Z,18.42
2018-06-03T03:02:25.381Z,18.38
2018-06-03T03:03:25.201Z,18.39
2018-06-03T03:04:25.223Z,18.41
2018-06-03T03:05:25.246Z,18.34
2018-06-03T03:06:25.265Z,18.35
2018-06-03T03:07:25.285Z,18.36
2018-06-03T03:08:25.308Z,18.41
2018-06-03T03:09:25.329Z,18.34
2018-06-03T03:10:25.351Z,18.31
2018-06-03T03:11:25.373Z,18.34
2018-06-03T03:12:25.395Z,18.29
2018-06-03T03:13:25.416Z,18.27
2018-06-03T03:14:25.438Z,18.26
2018-06-03T03:15:25.462Z,18.26
2018-06-03T03:16:25.482Z,18.27
2018-06-03T03:17:25.508Z,18.26
2018-06-03T03:18:25.523Z,18.26
2018-06-03T03:19:25.547Z,18.29
2018-06-03T03:20:25.568Z,18.27
2018-06-03T03:21:25.590Z,18.26
2018-06-03T03:22:25.611Z,18.20
2018-06-03T03:23:25.635Z,18.27
2018-06-03T03:24:25.655Z,18.24
2018-06-03T03:25:25.879Z,18.26
2018-06-03T03:26:25.698Z,18.32
2018-06-03T03:27:25.719Z,18.27
2018-06-03T03:28:25.742Z,18.29
2018-06-03T03:29:25.966Z,18.24
2018-06-03T03:30:25.786Z,18.26
2018-06-03T03:31:25.806Z,18.21
2018-06-03T03:32:25.827Z,18.16
2018-06-03T03:33:25.851Z,18.17
2018-06-03T03:34:25.872Z,18.14
2018-06-03T03:35:25.894Z,18.11
2018-06-03T03:36:25.914Z,18.16
2018-06-03T03:37:25.935Z,18.13
2018-06-03T03:38:25.959Z,18.10
2018-06-03T03:39:25.979Z,18.11
2018-06-03T03:40:26.004Z,18.11
2018-06-03T03:41:26.025Z,18.10
2018-06-03T03:42:26.044Z,18.08
2018-06-03T03:43:26.065Z,18.06
2018-06-03T03:44:26.088Z,18.10
2018-06-03T03:45:26.110Z,18.13
2018-06-03T03:46:26.130Z,18.06
2018-06-03T03:47:26.152Z,18.05
2018-06-03T03:48:26.174Z,18.08
2018-06-03T03:49:26.196Z,18.06
2018-06-03T03:50:26.221Z,18.08
2018-06-03T03:51:26.238Z,18.06
2018-06-03T03:52:26.262Z,18.05
2018-06-03T03:53:26.281Z,18.08
2018-06-03T03:54:26.306Z,18.11
2018-06-03T03:55:26.328Z,18.13
2018-06-03T03:56:26.346Z,18.20
2018-06-03T03:57:26.369Z,18.17
2018-06-03T03:58:26.388Z,18.21
2018-06-03T03:59:26.410Z,18.19
2018-06-03T04:00:26.433Z,18.26
2018-06-03T04:01:26.454Z,18.29
2018-06-03T04:02:26.474Z,18.24
2018-06-03T04:03:26.496Z,18.26
2018-06-03T04:04:26.518Z,18.41
2018-06-03T04:05:26.541Z,18.41
2018-06-03T04:06:26.561Z,18.39
2018-06-03T04:07:26.583Z,18.39
2018-06-03T04:08:26.605Z,18.41
2018-06-03T04:09:26.627Z,18.38
2018-06-03T04:10:26.649Z,18.47
2018-06-03T04:11:26.669Z,18.45
2018-06-03T04:12:26.692Z,18.56
2018-06-03T04:13:26.713Z,18.50
2018-06-03T04:14:26.735Z,18.47
2018-06-03T04:15:26.757Z,18.45
2018-06-03T04:16:26.779Z,18.53
2018-06-03T04:17:26.800Z,18.51
2018-06-03T04:18:26.822Z,18.57
2018-06-03T04:19:26.843Z,18.56
2018-06-03T04:20:26.864Z,18.53
2018-06-03T04:21:26.886Z,18.60
2018-06-03T04:22:26.908Z,18.47
2018-06-03T04:23:26.931Z,18.54
2018-06-03T04:24:26.952Z,18.53
2018-06-03T04:25:26.975Z,18.54
2018-06-03T04:26:26.998Z,18.47
2018-06-03T04:27:27.020Z,18.59
2018-06-03T04:28:27.040Z,18.57
2018-06-03T04:30:27.082Z,18.44
2018-06-03T04:31:27.103Z,18.59
2018-06-03T04:32:27.127Z,18.63
2018-06-03T04:33:27.150Z,18.54
2018-06-03T04:34:27.173Z,18.54
2018-06-03T04:35:27.192Z,18.60
2018-06-03T04:36:27.213Z,18.76
2018-06-03T04:37:27.235Z,18.79
2018-06-03T04:38:27.257Z,18.84
2018-06-03T04:39:27.278Z,18.89
2018-06-03T04:40:27.300Z,18.86
2018-06-03T04:41:27.324Z,18.84
2018-06-03T04:42:27.344Z,18.97
2018-06-03T04:43:27.365Z,18.90
2018-06-03T04:44:27.388Z,18.91
2018-06-03T04:45:27.409Z,19.02
2018-06-03T04:46:27.431Z,18.93
2018-06-03T04:47:27.454Z,19.05
2018-06-03T04:48:27.477Z,18.99
2018-06-03T04:49:27.498Z,18.94
2018-06-03T04:50:27.520Z,19.09
2018-06-03T04:51:27.541Z,18.99
2018-06-03T04:52:27.566Z,18.96
2018-06-03T04:53:27.585Z,18.94
2018-06-03T04:54:27.606Z,18.93
2018-06-03T04:55:27.628Z,18.93
2018-06-03T04:56:27.652Z,18.96
2018-06-03T04:57:27.676Z,18.86
2018-06-03T04:58:27.695Z,18.91
2018-06-03T04:59:27.716Z,18.81
2018-06-03T05:00:27.739Z,18.87
2018-06-03T05:01:27.808Z,18.97
2018-06-03T05:02:27.786Z,18.94
2018-06-03T05:03:27.806Z,18.94
2018-06-03T05:04:27.826Z,18.93
2018-06-03T05:05:27.849Z,19.07
2018-06-03T05:06:27.870Z,19.00
2018-06-03T05:07:27.893Z,18.99
2018-06-03T05:08:27.916Z,19.09
2018-06-03T05:09:27.939Z,19.12
2018-06-03T05:10:27.959Z,19.02
2018-06-03T05:11:27.982Z,19.05
2018-06-03T05:12:28.003Z,18.97
2018-06-03T05:13:28.030Z,19.07
2018-06-03T05:14:28.047Z,19.02
2018-06-03T05:15:28.069Z,19.06
2018-06-03T05:16:28.092Z,19.07
2018-06-03T05:17:28.116Z,19.06
2018-06-03T05:18:28.137Z,19.15
2018-06-03T05:19:28.158Z,19.19
2018-06-03T05:20:28.180Z,19.12
2018-06-03T05:21:28.203Z,19.00
2018-06-03T05:22:28.224Z,19.13
2018-06-03T05:23:28.280Z,19.07
2018-06-03T05:24:28.268Z,19.10
2018-06-03T05:25:28.290Z,18.97
2018-06-03T05:26:28.312Z,19.02
2018-06-03T05:27:28.336Z,19.09
2018-06-03T05:28:28.363Z,19.13
2018-06-03T05:29:28.380Z,19.17
2018-06-03T05:30:28.401Z,19.13
2018-06-03T05:31:28.423Z,19.23
2018-06-03T05:32:28.445Z,19.16
2018-06-03T05:33:28.468Z,19.27
2018-06-03T05:34:28.489Z,19.32
2018-06-03T05:35:28.511Z,19.35
2018-06-03T05:36:28.535Z,19.38
2018-06-03T05:37:28.557Z,19.34
2018-06-03T05:38:28.583Z,19.34
2018-06-03T05:39:28.599Z,19.38
2018-06-03T05:40:28.626Z,19.49
2018-06-03T05:41:28.645Z,19.53
2018-06-03T05:42:28.706Z,19.57
2018-06-03T05:43:28.688Z,19.57
2018-06-03T05:44:28.717Z,19.67
2018-06-03T05:45:28.734Z,19.61
2018-06-03T05:46:28.756Z,19.64
2018-06-03T05:47:28.779Z,19.63
2018-06-03T05:48:28.800Z,19.53
2018-06-03T05:49:28.823Z,19.53
2018-06-03T05:50:28.849Z,19.75
2018-06-03T05:51:28.867Z,19.75
2018-06-03T05:52:28.889Z,19.72
2018-06-03T05:53:28.913Z,19.83
2018-06-03T05:54:28.935Z,19.80
2018-06-03T05:55:28.957Z,19.78
2018-06-03T05:56:28.980Z,19.89
2018-06-03T05:57:29.004Z,19.89
2018-06-03T05:58:29.024Z,19.93
2018-06-03T05:59:29.046Z,19.80
2018-06-03T06:00:29.069Z,19.90
2018-06-03T06:01:29.092Z,19.85
2018-06-03T06:02:29.113Z,19.86
2018-06-03T06:03:29.339Z,19.80
2018-06-03T06:04:29.159Z,19.87
2018-06-03T06:05:29.181Z,19.82
2018-06-03T06:06:29.206Z,19.95
2018-06-03T06:07:29.227Z,19.85
2018-06-03T06:08:29.248Z,19.72
2018-06-03T06:09:29.272Z,19.75
2018-06-03T06:10:29.295Z,19.78
2018-06-03T06:11:29.316Z,19.75
2018-06-03T06:12:29.340Z,19.82
2018-06-03T06:13:29.362Z,19.93
2018-06-03T06:14:29.384Z,19.79
2018-06-03T06:15:29.406Z,19.75
2018-06-03T06:16:29.429Z,19.89
2018-06-03T06:17:29.453Z,19.92
2018-06-03T06:18:29.475Z,20.04
2018-06-03T06:19:29.496Z,20.02
2018-06-03T06:20:29.522Z,20.16
2018-06-03T06:21:29.542Z,20.16
2018-06-03T06:22:29.564Z,20.27
2018-06-03T06:23:29.588Z,20.25
2018-06-03T06:24:29.611Z,20.30
2018-06-03T06:25:29.633Z,20.35
2018-06-03T06:26:29.655Z,20.30
2018-06-03T06:27:29.678Z,20.41
2018-06-03T06:28:29.701Z,20.54
2018-06-03T06:29:29.779Z,20.66
2018-06-03T06:30:29.744Z,20.57
2018-06-03T06:31:29.765Z,20.58
2018-06-03T06:32:29.792Z,20.64
2018-06-03T06:33:29.812Z,20.68
2018-06-03T06:34:29.836Z,20.94
2018-06-03T06:35:29.859Z,21.12
2018-06-03T06:36:29.888Z,21.22
2018-06-03T06:37:29.905Z,21.46
2018-06-03T06:38:29.928Z,21.61
2018-06-03T06:39:29.954Z,21.83
2018-06-03T06:40:29.975Z,21.80
2018-06-03T06:41:29.997Z,21.68
2018-06-03T06:42:30.020Z,21.76
2018-06-03T06:43:30.045Z,21.68
2018-06-03T06:44:30.068Z,21.62
2018-06-03T06:45:30.093Z,21.70
2018-06-03T06:46:30.115Z,21.78
2018-06-03T06:47:30.138Z,21.74
2018-06-03T06:48:30.163Z,21.82
2018-06-03T06:49:30.187Z,21.74
2018-06-03T06:50:30.210Z,21.89
2018-06-03T06:51:30.233Z,21.85
2018-06-03T06:52:30.258Z,21.49
2018-06-03T06:53:30.284Z,21.41
2018-06-03T06:54:30.306Z,21.46
2018-06-03T06:55:30.330Z,21.53
2018-06-03T06:56:30.355Z,21.55
2018-06-03T06:57:30.380Z,21.46
2018-06-03T06:58:30.402Z,21.37
2018-06-03T06:59:30.426Z,21.30
2018-06-03T07:00:30.451Z,21.19
2018-06-03T07:01:30.476Z,21.16
2018-06-03T07:02:30.501Z,21.08
2018-06-03T07:03:30.523Z,20.96
2018-06-03T07:04:30.549Z,20.94
2018-06-03T07:05:30.572Z,20.91
2018-06-03T07:06:30.615Z,20.83
2018-06-03T07:07:30.620Z,20.94
2018-06-03T07:08:30.644Z,20.86
2018-06-03T07:09:30.670Z,20.93
2018-06-03T07:10:30.693Z,20.96
2018-06-03T07:11:30.715Z,21.00
2018-06-03T07:12:30.742Z,21.00
2018-06-03T07:13:30.765Z,21.01
2018-06-03T07:14:30.823Z,21.21
2018-06-03T07:15:30.811Z,21.18
2018-06-03T07:16:30.836Z,21.18
2018-06-03T07:17:30.859Z,21.16
2018-06-03T07:18:30.883Z,21.18
2018-06-03T07:19:30.906Z,21.22
2018-06-03T07:20:30.932Z,21.30
2018-06-03T07:21:30.955Z,21.43
2018-06-03T07:22:30.979Z,21.25
2018-06-03T07:23:31.003Z,21.41
2018-06-03T07:24:31.027Z,21.25
2018-06-03T07:25:31.051Z,21.27
2018-06-03T07:26:31.073Z,21.18
2018-06-03T07:27:31.103Z,21.15
2018-06-03T07:28:31.121Z,21.16
2018-06-03T07:29:31.148Z,21.01
2018-06-03T07:30:31.371Z,21.08
2018-06-03T07:31:31.191Z,21.15
2018-06-03T07:32:31.215Z,21.22
2018-06-03T07:34:31.264Z,21.18
2018-06-03T07:35:31.287Z,21.30
2018-06-03T07:36:31.311Z,21.43
2018-06-03T07:37:31.336Z,21.58
2018-06-03T07:38:31.361Z,21.67
2018-06-03T07:39:31.385Z,21.83
2018-06-03T07:40:31.407Z,21.61
2018-06-03T07:41:31.429Z,21.45
2018-06-03T07:42:31.454Z,21.49
2018-06-03T07:43:31.483Z,21.53
2018-06-03T07:44:31.500Z,21.51
2018-06-03T07:45:31.529Z,21.55
2018-06-03T07:46:31.548Z,21.67
2018-06-03T07:47:31.572Z,21.71
2018-06-03T07:48:31.595Z,21.83
2018-06-03T07:49:31.620Z,21.85
2018-06-03T07:50:31.641Z,21.90
2018-06-03T07:51:31.667Z,22.05
2018-06-03T07:52:31.691Z,22.11
2018-06-03T07:53:31.715Z,22.18
2018-06-03T07:54:31.739Z,22.12
2018-06-03T07:55:31.760Z,22.33
2018-06-03T07:56:31.785Z,22.41
2018-06-03T07:57:31.807Z,22.39
2018-06-03T07:58:31.829Z,22.41
2018-06-03T07:59:31.855Z,22.38
2018-06-03T08:00:31.877Z,22.30
2018-06-03T08:01:31.901Z,22.23
2018-06-03T08:02:31.924Z,22.20
2018-06-03T08:03:31.950Z,22.08
2018-06-03T08:04:31.974Z,22.11
2018-06-03T08:05:31.998Z,22.05
2018-06-03T08:06:32.023Z,21.89
2018-06-03T08:07:32.049Z,21.97
2018-06-03T08:08:32.070Z,22.02
2018-06-03T08:09:32.093Z,22.11
2018-06-03T08:10:32.116Z,22.16
2018-06-03T08:11:32.142Z,22.27
2018-06-03T08:12:32.166Z,22.36
2018-06-03T08:13:32.191Z,22.46
2018-06-03T08:14:32.215Z,22.55
2018-06-03T08:15:32.237Z,22.55
2018-06-03T08:16:32.263Z,22.45
2018-06-03T08:17:32.288Z,22.44
2018-06-03T08:18:32.311Z,22.24
2018-06-03T08:19:32.335Z,22.08
2018-06-03T08:20:32.359Z,22.15
2018-06-03T08:21:32.385Z,22.26
2018-06-03T08:22:32.407Z,22.36
2018-06-03T08:23:32.431Z,22.49
2018-06-03T08:24:32.457Z,22.46
2018-06-03T08:25:32.481Z,22.31
2018-06-03T08:26:32.506Z,22.34
2018-06-03T08:27:32.530Z,22.26
2018-06-03T08:28:32.554Z,22.30
2018-06-03T08:29:32.578Z,22.09
2018-06-03T08:30:32.600Z,22.09
2018-06-03T08:31:32.625Z,22.22
2018-06-03T08:32:32.653Z,22.16
2018-06-03T08:33:32.674Z,22.23
2018-06-03T08:34:32.698Z,22.14
2018-06-03T08:35:32.724Z,22.07
2018-06-03T08:36:32.747Z,22.05
2018-06-03T08:37:32.770Z,21.89
2018-06-03T08:38:32.793Z,21.80
2018-06-03T08:39:32.819Z,21.82
2018-06-03T08:40:32.843Z,21.76
2018-06-03T08:41:32.867Z,21.74
2018-06-03T08:42:32.891Z,21.67
2018-06-03T08:43:32.917Z,21.64
2018-06-03T08:44:32.940Z,21.67
2018-06-03T08:45:32.965Z,21.66
2018-06-03T08:46:32.988Z,21.59
2018-06-03T08:47:33.011Z,21.51
2018-06-03T08:48:33.036Z,21.45
2018-06-03T08:49:33.061Z,21.41
2018-06-03T08:50:33.087Z,21.30
2018-06-03T08:51:33.111Z,21.37
2018-06-03T08:52:33.133Z,21.27
2018-06-03T08:53:33.156Z,21.31
2018-06-03T08:54:33.183Z,21.41
2018-06-03T08:55:33.204Z,21.48
2018-06-03T08:56:33.227Z,21.55
2018-06-03T08:57:33.255Z,21.62
2018-06-03T08:58:33.275Z,21.66
2018-06-03T08:59:33.298Z,21.73
2018-06-03T09:00:33.383Z,21.66
2018-06-03T09:01:33.351Z,21.66
2018-06-03T09:02:33.572Z,21.77
2018-06-03T09:03:33.393Z,21.74
2018-06-03T09:04:33.417Z,21.78
2018-06-03T09:05:33.441Z,21.86
2018-06-03T09:06:33.466Z,21.73
2018-06-03T09:07:33.489Z,21.93
2018-06-03T09:08:33.513Z,21.85
2018-06-03T09:09:33.536Z,21.76
2018-06-03T09:10:33.559Z,21.74
2018-06-03T09:11:33.587Z,21.82
2018-06-03T09:12:33.608Z,21.66
2018-06-03T09:13:33.631Z,21.70
2018-06-03T09:14:33.657Z,21.67
2018-06-03T09:15:33.694Z,21.66
2018-06-03T09:16:33.703Z,21.49
2018-06-03T09:17:33.726Z,21.37
2018-06-03T09:18:33.749Z,21.27
2018-06-03T09:19:33.773Z,21.18
2018-06-03T09:20:33.796Z,21.11
2018-06-03T09:21:33.821Z,21.03
2018-06-03T09:22:33.845Z,20.97
2018-06-03T09:23:33.868Z,20.96
2018-06-03T09:24:33.891Z,20.98
2018-06-03T09:25:33.923Z,20.82
2018-06-03T09:26:33.940Z,20.90
2018-06-03T09:27:33.963Z,20.81
2018-06-03T09:28:33.986Z,20.90
2018-06-03T09:29:34.021Z,20.91
2018-06-03T09:30:34.032Z,20.94
2018-06-03T09:31:34.055Z,21.00
2018-06-03T09:32:34.078Z,20.98
2018-06-03T09:33:34.102Z,21.09
2018-06-03T09:34:34.135Z,21.13
2018-06-03T09:35:34.148Z,21.19
2018-06-03T09:36:34.173Z,21.28
2018-06-03T09:37:34.195Z,21.28
2018-06-03T09:38:34.217Z,21.33
2018-06-03T09:39:34.244Z,21.49
2018-06-03T09:40:34.265Z,21.62
2018-06-03T09:41:34.289Z,21.77
2018-06-03T09:42:34.310Z,21.93
2018-06-03T09:43:34.334Z,21.96
2018-06-03T09:44:34.403Z,22.08
2018-06-03T09:45:34.381Z,22.23
2018-06-03T09:46:34.405Z,22.33
2018-06-03T09:47:34.432Z,22.31
2018-06-03T09:48:34.452Z,22.44
2018-06-03T09:49:34.475Z,22.89
2018-06-03T09:50:34.499Z,23.10
2018-06-03T09:51:34.522Z,23.38
2018-06-03T09:52:34.551Z,23.78
2018-06-03T09:53:34.568Z,24.17
2018-06-03T09:54:34.594Z,24.59
2018-06-03T09:55:34.618Z,24.90
2018-06-03T09:56:34.641Z,25.70
2018-06-03T09:57:34.665Z,26.52
2018-06-03T09:58:34.690Z,27.11
2018-06-03T09:59:34.714Z,27.57
2018-06-03T10:00:34.738Z,27.51
2018-06-03T10:01:34.763Z,27.71
2018-06-03T10:02:34.789Z,27.65
2018-06-03T10:03:34.830Z,27.68
2018-06-03T10:04:34.847Z,27.52
2018-06-03T10:05:34.866Z,27.18
2018-06-03T10:06:34.892Z,27.08
2018-06-03T10:07:34.918Z,27.61
2018-06-03T10:08:34.949Z,27.89
2018-06-03T10:09:34.973Z,28.06
2018-06-03T10:10:35.000Z,28.60
2018-06-03T10:11:35.027Z,28.49
2018-06-03T10:12:35.055Z,28.54
2018-06-03T10:13:35.087Z,28.78
2018-06-03T10:14:35.110Z,28.85
2018-06-03T10:15:35.138Z,27.89
2018-06-03T10:16:35.167Z,27.16
2018-06-03T10:17:35.197Z,26.64
2018-06-03T10:18:35.225Z,26.01
2018-06-03T10:19:35.253Z,25.51
2018-06-03T10:20:35.281Z,25.15
2018-06-03T10:21:35.351Z,25.08
2018-06-03T10:22:35.340Z,25.17
2018-06-03T10:23:35.368Z,25.54
2018-06-03T10:24:35.397Z,25.59
2018-06-03T10:25:35.426Z,25.62
2018-06-03T10:26:35.454Z,25.66
2018-06-03T10:27:35.481Z,25.89
2018-06-03T10:28:35.512Z,25.62
2018-06-03T10:29:35.540Z,25.42
2018-06-03T10:30:35.567Z,25.39
2018-06-03T10:31:35.595Z,25.24
2018-06-03T10:32:35.624Z,24.93
2018-06-03T10:33:35.673Z,24.90
2018-06-03T10:34:35.680Z,24.80
2018-06-03T10:35:35.709Z,24.80
2018-06-03T10:36:35.737Z,24.92
2018-06-03T10:37:35.764Z,24.94
2018-06-03T10:38:35.793Z,25.05
2018-06-03T10:39:35.820Z,24.94
2018-06-03T10:40:35.848Z,24.77
2018-06-03T10:41:35.875Z,24.71
2018-06-03T10:42:35.904Z,24.85
2018-06-03T10:43:35.930Z,24.92
2018-06-03T10:44:35.957Z,24.94
2018-06-03T10:45:35.985Z,25.14
2018-06-03T10:46:36.023Z,25.32
2018-06-03T10:47:36.048Z,25.29
2018-06-03T10:48:36.069Z,25.48
2018-06-03T10:49:36.101Z,25.52
2018-06-03T10:50:36.123Z,25.93
2018-06-03T10:51:36.149Z,26.94
2018-06-03T10:52:36.177Z,27.64
2018-06-03T10:53:36.205Z,27.18
2018-06-03T10:54:36.256Z,26.94
2018-06-03T10:55:36.259Z,26.50
2018-06-03T10:56:36.288Z,27.49
2018-06-03T10:57:36.315Z,27.90
2018-06-03T10:58:36.345Z,28.45
2018-06-03T10:59:36.369Z,29.08
2018-06-03T11:00:36.402Z,29.38
2018-06-03T11:01:36.426Z,29.50
2018-06-03T11:02:36.454Z,29.51
2018-06-03T11:03:36.486Z,29.77
2018-06-03T11:04:36.714Z,28.70
2018-06-03T11:05:36.549Z,28.86
2018-06-03T11:06:36.567Z,28.76
2018-06-03T11:07:36.596Z,29.06
2018-06-03T11:08:36.625Z,29.23
2018-06-03T11:09:36.661Z,29.48
2018-06-03T11:10:36.685Z,29.51
2018-06-03T11:11:36.714Z,29.85
2018-06-03T11:12:36.744Z,29.95
2018-06-03T11:13:36.773Z,29.47
2018-06-03T11:14:36.802Z,29.21
2018-06-03T11:15:36.833Z,29.35
2018-06-03T11:16:36.887Z,29.54
2018-06-03T11:17:36.892Z,29.40
2018-06-03T11:18:36.922Z,29.85
2018-06-03T11:19:36.952Z,29.67
2018-06-03T11:20:36.985Z,29.89
2018-06-03T11:21:37.015Z,29.55
2018-06-03T11:22:37.045Z,29.47
2018-06-03T11:23:37.078Z,29.21
2018-06-03T11:24:37.106Z,29.72
2018-06-03T11:25:37.138Z,29.88
2018-06-03T11:26:37.167Z,29.47
2018-06-03T11:27:37.199Z,30.04
2018-06-03T11:28:37.231Z,30.26
2018-06-03T11:29:37.263Z,30.63
2018-06-03T11:30:37.291Z,30.47
2018-06-03T11:31:37.324Z,30.47
2018-06-03T11:32:37.354Z,30.25
2018-06-03T11:33:37.386Z,30.06
2018-06-03T11:34:37.421Z,30.51
2018-06-03T11:35:37.448Z,30.37
2018-06-03T11:36:37.480Z,30.10
2018-06-03T11:37:37.514Z,29.23
2018-06-03T11:38:37.542Z,29.14
2018-06-03T11:39:37.574Z,29.69
2018-06-03T11:40:37.612Z,29.36
2018-06-03T11:41:37.635Z,30.02
2018-06-03T11:42:37.668Z,30.32
2018-06-03T11:43:37.698Z,30.86
2018-06-03T11:44:37.736Z,30.44
2018-06-03T11:45:37.762Z,29.69
2018-06-03T11:46:37.794Z,29.18
2018-06-03T11:47:37.824Z,29.60
2018-06-03T11:48:37.860Z,30.11
2018-06-03T11:49:37.889Z,30.66
2018-06-03T11:50:37.918Z,30.49
2018-06-03T11:51:38.040Z,29.67
2018-06-03T11:52:37.982Z,29.47
2018-06-03T11:53:38.014Z,29.97
2018-06-03T11:54:38.045Z,30.37
2018-06-03T11:55:38.076Z,30.24
2018-06-03T11:56:38.109Z,29.79
2018-06-03T11:57:38.139Z,29.10
2018-06-03T11:58:38.170Z,28.43
2018-06-03T11:59:38.201Z,28.08
2018-06-03T12:00:38.233Z,27.84
2018-06-03T12:01:38.263Z,28.54
2018-06-03T12:02:38.297Z,29.28
2018-06-03T12:03:38.333Z,30.06
2018-06-03T12:04:38.357Z,30.62
2018-06-03T12:05:38.389Z,31.01
2018-06-03T12:06:38.419Z,30.93
2018-06-03T12:07:38.458Z,31.01
2018-06-03T12:08:38.481Z,30.64
2018-06-03T12:09:38.715Z,30.49
2018-06-03T12:10:38.542Z,30.06
2018-06-03T12:11:38.574Z,29.42
2018-06-03T12:12:38.605Z,29.15
2018-06-03T12:13:38.637Z,29.02
2018-06-03T12:14:38.666Z,28.42
2018-06-03T12:15:38.697Z,28.28
2018-06-03T12:16:38.730Z,28.36
2018-06-03T12:17:38.760Z,28.76
2018-06-03T12:19:38.821Z,28.92
2018-06-03T12:20:39.060Z,28.97
2018-06-03T12:21:38.884Z,29.60
2018-06-03T12:22:38.915Z,29.88
2018-06-03T12:23:38.944Z,29.51
2018-06-03T12:24:38.973Z,28.85
2018-06-03T12:25:39.004Z,28.43
2018-06-03T12:26:39.035Z,28.05
2018-06-03T12:27:39.067Z,27.62
2018-06-03T12:28:39.189Z,27.41
2018-06-03T12:29:39.124Z,27.59
2018-06-03T12:30:39.155Z,28.08
2018-06-03T12:31:39.184Z,28.28
2018-06-03T12:32:39.215Z,28.67
2018-06-03T12:33:39.244Z,28.63
2018-06-03T12:34:39.274Z,28.11
2018-06-03T12:35:39.303Z,27.64
2018-06-03T12:36:39.333Z,27.24
2018-06-03T12:37:39.362Z,27.69
2018-06-03T12:38:39.391Z,27.37
2018-06-03T12:39:39.421Z,27.23
2018-06-03T12:40:39.450Z,27.08
2018-06-03T12:41:39.479Z,27.01
2018-06-03T12:42:39.509Z,26.94
2018-06-03T12:43:39.537Z,26.79
2018-06-03T12:44:39.569Z,26.71
2018-06-03T12:45:39.595Z,26.79
2018-06-03T12:46:39.625Z,26.81
2018-06-03T12:47:39.653Z,26.82
2018-06-03T12:48:39.681Z,27.12
2018-06-03T12:49:39.711Z,27.06
2018-06-03T12:50:39.737Z,27.08
2018-06-03T12:51:39.767Z,27.34
2018-06-03T12:52:39.796Z,27.41
2018-06-03T12:53:39.823Z,27.62
2018-06-03T12:54:39.855Z,27.74
2018-06-03T12:55:39.880Z,27.87